createdAt,value
2023-11-14T00:00:43.081Z,9.40
2023-11-14T00:03:32.053Z,8.45
2023-11-14T00:06:04.194Z,9.02
2023-11-14T00:08:33.975Z,9.07
2023-11-14T00:11:06.979Z,10.02
2023-11-14T00:13:36.135Z,9.50
2023-11-14T00:16:05.577Z,9.88
2023-11-14T00:18:34.583Z,8.25
2023-11-14T00:21:04.316Z,8.18
2023-11-14T00:23:33.071Z,8.48
2023-11-14T00:26:02.964Z,8.18
2023-11-14T00:28:32.953Z,9.32
2023-11-14T00:31:02.130Z,9.15
2023-11-14T00:33:30.999Z,8.75
2023-11-14T00:36:01.072Z,7.88
2023-11-14T00:38:29.740Z,6.85
2023-11-14T00:41:00.026Z,10.85
2023-11-14T00:43:29.700Z,8.68
2023-11-14T00:45:58.750Z,7.38
2023-11-14T00:48:28.164Z,9.43
2023-11-14T00:50:57.129Z,9.18
2023-11-14T00:53:26.150Z,8.45
2023-11-14T00:55:56.860Z,7.13
2023-11-14T00:58:26.321Z,6.85
2023-11-14T01:00:56.020Z,10.98
2023-11-14T01:03:27.161Z,7.78
2023-11-14T01:05:56.832Z,6.60
2023-11-14T01:08:26.221Z,9.13
2023-11-14T01:10:55.320Z,9.48
2023-11-14T01:13:24.098Z,10.23
2023-11-14T01:15:53.152Z,8.15
2023-11-14T01:18:21.842Z,8.02
2023-11-14T01:20:51.231Z,6.47
2023-11-14T01:23:20.260Z,7.38
2023-11-14T01:25:49.358Z,7.88
2023-11-14T01:28:18.092Z,10.10
2023-11-14T01:30:47.816Z,7.47
2023-11-14T01:33:16.481Z,7.43
2023-11-14T01:35:47.201Z,7.32
2023-11-14T01:38:16.363Z,7.35
2023-11-14T01:40:54.612Z,7.10
2023-11-14T01:43:23.642Z,12.00
2023-11-14T01:45:52.889Z,8.35
2023-11-14T01:48:21.603Z,7.57
2023-11-14T01:50:50.631Z,7.93
2023-11-14T01:53:20.398Z,7.85
2023-11-14T01:55:50.648Z,10.00
2023-11-14T01:58:19.375Z,9.27
2023-11-14T02:00:49.107Z,6.40
2023-11-14T02:03:18.638Z,6.00
2023-11-14T02:05:47.988Z,6.25
2023-11-14T02:08:17.973Z,8.20
2023-11-14T02:10:47.524Z,6.75
2023-11-14T02:13:16.289Z,7.18
2023-11-14T02:15:45.559Z,7.57
2023-11-14T02:18:20.013Z,6.03
2023-11-14T02:20:49.140Z,6.15
2023-11-14T02:23:18.617Z,9.63
2023-11-14T02:25:47.777Z,7.20
2023-11-14T02:28:16.551Z,7.38
2023-11-14T02:30:45.989Z,6.13
2023-11-14T02:33:14.684Z,6.60
2023-11-14T02:35:43.734Z,7.93
2023-11-14T02:38:12.795Z,6.15
2023-11-14T02:40:42.102Z,6.18
2023-11-14T02:43:11.394Z,5.95
2023-11-14T02:45:40.461Z,6.03
2023-11-14T02:48:10.193Z,7.85
2023-11-14T02:50:56.287Z,6.72
2023-11-14T02:53:24.937Z,6.28
2023-11-14T02:55:54.110Z,8.10
2023-11-14T02:58:22.860Z,7.50
2023-11-14T03:00:52.605Z,7.28
2023-11-14T03:03:22.072Z,7.20
2023-11-14T03:05:51.122Z,8.32
2023-11-14T03:08:19.832Z,5.93
2023-11-14T03:10:48.888Z,7.40
2023-11-14T03:13:19.293Z,8.35
2023-11-14T03:15:49.276Z,7.80
2023-11-14T03:18:17.891Z,7.13
2023-11-14T03:20:47.562Z,7.55
2023-11-14T03:23:16.306Z,8.82
2023-11-14T03:25:45.400Z,6.25
2023-11-14T03:28:14.022Z,7.68
2023-11-14T03:30:43.156Z,7.32
2023-11-14T03:33:12.083Z,6.47
2023-11-14T03:35:41.022Z,6.50
2023-11-14T03:38:09.689Z,5.85
2023-11-14T03:40:38.858Z,7.22
2023-11-14T03:43:07.490Z,6.63
2023-11-14T03:45:36.398Z,5.57
2023-11-14T03:48:05.457Z,7.32
2023-11-14T03:50:34.457Z,6.43
2023-11-14T03:53:04.056Z,6.28
2023-11-14T03:55:33.617Z,5.25
2023-11-14T03:58:02.233Z,6.35
2023-11-14T04:00:34.103Z,6.82
2023-11-14T04:03:02.876Z,9.57
2023-11-14T04:05:31.990Z,7.00
2023-11-14T04:08:01.573Z,6.75
2023-11-14T04:10:32.443Z,6.90
2023-11-14T04:13:02.264Z,8.15
2023-11-14T04:15:33.004Z,7.72
2023-11-14T04:18:01.711Z,6.15
2023-11-14T04:20:30.772Z,5.55
2023-11-14T04:22:59.619Z,6.88
2023-11-14T04:25:28.570Z,7.05
2023-11-14T04:27:57.160Z,8.27
2023-11-14T04:30:26.190Z,6.93
2023-11-14T04:32:54.960Z,6.13
2023-11-14T04:35:24.381Z,9.88
2023-11-14T04:37:57.007Z,5.93
2023-11-14T04:42:54.753Z,5.93
2023-11-14T04:45:23.774Z,7.25
2023-11-14T04:47:52.467Z,6.93
2023-11-14T04:50:21.971Z,7.93
2023-11-14T04:52:50.776Z,8.93
2023-11-14T04:55:19.766Z,6.45
2023-11-14T04:57:48.422Z,6.95
2023-11-14T05:00:18.604Z,5.95
2023-11-14T05:02:47.318Z,5.25
2023-11-14T05:05:16.433Z,6.93
2023-11-14T05:07:45.260Z,6.22
2023-11-14T05:10:14.977Z,7.15
2023-11-14T05:12:43.579Z,6.10
2023-11-14T05:15:13.674Z,5.50
2023-11-14T05:17:42.411Z,5.35
2023-11-14T05:20:12.901Z,5.85
2023-11-14T05:22:41.588Z,6.03
2023-11-14T05:25:11.421Z,5.38
2023-11-14T05:27:40.140Z,6.95
2023-11-14T05:30:12.210Z,6.88
2023-11-14T05:32:41.035Z,5.30
2023-11-14T05:35:10.484Z,5.65
2023-11-14T05:37:39.172Z,6.80
2023-11-14T05:40:11.815Z,5.43
2023-11-14T05:42:43.488Z,5.60
2023-11-14T05:45:12.530Z,8.07
2023-11-14T05:47:41.166Z,5.68
2023-11-14T05:50:10.888Z,5.47
2023-11-14T05:52:39.729Z,4.65
2023-11-14T05:55:09.164Z,6.05
2023-11-14T05:57:37.725Z,5.20
2023-11-14T06:00:08.774Z,6.78
2023-11-14T06:02:48.416Z,7.13
2023-11-14T06:05:17.941Z,5.68
2023-11-14T06:07:46.643Z,6.00
2023-11-14T06:10:15.754Z,6.65
2023-11-14T06:12:45.034Z,6.60
2023-11-14T06:15:14.862Z,5.82
2023-11-14T06:17:43.523Z,6.65
2023-11-14T06:20:13.590Z,5.30
2023-11-14T06:22:42.412Z,5.07
2023-11-14T06:25:11.322Z,6.93
2023-11-14T06:27:39.927Z,5.80
2023-11-14T06:30:09.229Z,5.57
2023-11-14T06:32:38.052Z,5.70
2023-11-14T06:35:07.701Z,5.47
2023-11-14T06:37:39.543Z,6.50
2023-11-14T06:40:09.232Z,5.10
2023-11-14T06:42:37.904Z,8.32
2023-11-14T06:45:07.314Z,5.18
2023-11-14T06:47:36.009Z,5.60
2023-11-14T06:50:07.189Z,5.65
2023-11-14T06:52:35.939Z,4.57
2023-11-14T06:55:05.312Z,5.00
2023-11-14T06:57:33.976Z,4.70
2023-11-14T07:00:05.022Z,4.32
2023-11-14T07:02:34.018Z,5.93
2023-11-14T07:05:03.117Z,6.30
2023-11-14T07:07:31.761Z,6.70
2023-11-14T07:10:00.634Z,8.73
2023-11-14T07:12:29.320Z,7.97
2023-11-14T07:14:58.416Z,9.52
2023-11-14T07:17:27.715Z,12.13
2023-11-14T07:19:58.599Z,11.05
2023-11-14T07:22:27.298Z,5.43
2023-11-14T07:24:56.306Z,7.47
2023-11-14T07:27:25.049Z,9.23
2023-11-14T07:29:54.135Z,8.00
2023-11-14T07:32:22.810Z,8.60
2023-11-14T07:34:51.861Z,6.55
2023-11-14T07:37:20.636Z,6.95
2023-11-14T07:39:49.992Z,6.80
2023-11-14T07:42:19.263Z,7.47
2023-11-14T07:44:48.299Z,10.48
2023-11-14T07:47:21.151Z,6.82
2023-11-14T07:49:51.753Z,8.23
2023-11-14T07:52:20.596Z,8.77
2023-11-14T07:54:51.020Z,7.57
2023-11-14T07:57:19.825Z,7.00
2023-11-14T07:59:49.101Z,10.32
2023-11-14T08:02:17.965Z,6.53
2023-11-14T08:04:47.134Z,7.05
2023-11-14T08:07:15.905Z,8.50
2023-11-14T08:09:45.265Z,9.43
2023-11-14T08:12:14.016Z,6.22
2023-11-14T08:14:43.247Z,7.43
2023-11-14T08:17:12.331Z,8.30
2023-11-14T08:19:41.467Z,8.35
2023-11-14T08:22:10.571Z,8.63
2023-11-14T08:24:40.121Z,10.45
2023-11-14T08:27:09.059Z,8.13
2023-11-14T08:29:38.248Z,9.90
2023-11-14T08:32:07.666Z,7.15
2023-11-14T08:34:37.027Z,7.72
2023-11-14T08:37:05.866Z,8.20
2023-11-14T08:39:35.130Z,6.38
2023-11-14T08:42:04.110Z,9.07
2023-11-14T08:44:33.208Z,9.60
2023-11-14T08:47:01.955Z,4.78
2023-11-14T08:49:31.552Z,8.70
2023-11-14T08:52:00.205Z,6.40
2023-11-14T08:54:29.384Z,8.00
2023-11-14T08:56:59.004Z,7.47
2023-11-14T08:59:28.070Z,8.38
2023-11-14T09:01:57.604Z,7.07
2023-11-14T09:04:26.993Z,7.78
2023-11-14T09:06:55.806Z,5.93
2023-11-14T09:09:24.996Z,8.15
2023-11-14T09:11:53.757Z,11.55
2023-11-14T09:14:23.098Z,7.38
2023-11-14T09:16:53.167Z,7.68
2023-11-14T09:19:24.356Z,7.50
2023-11-14T09:21:53.362Z,6.93
2023-11-14T09:24:22.594Z,6.63
2023-11-14T09:26:51.328Z,6.75
2023-11-14T09:29:20.475Z,6.82
2023-11-14T09:31:49.916Z,5.97
2023-11-14T09:34:18.964Z,4.65
2023-11-14T09:36:47.653Z,7.60
2023-11-14T09:39:24.361Z,6.60
2023-11-14T09:41:57.081Z,5.55
2023-11-14T09:44:28.366Z,8.95
2023-11-14T09:46:57.228Z,6.05
2023-11-14T09:49:29.544Z,6.70
2023-11-14T09:52:00.656Z,7.88
2023-11-14T09:54:30.224Z,10.15
2023-11-14T09:56:58.985Z,4.45
2023-11-14T09:59:27.994Z,5.15
2023-11-14T10:01:56.886Z,7.70
2023-11-14T10:04:26.107Z,12.32
2023-11-14T10:06:55.316Z,7.07
2023-11-14T10:09:24.486Z,6.15
2023-11-14T10:12:12.733Z,7.38
2023-11-14T10:14:45.585Z,7.47
2023-11-14T10:17:19.553Z,7.63
2023-11-14T10:20:10.507Z,6.90
2023-11-14T10:22:51.239Z,7.85
2023-11-14T10:25:34.148Z,5.35
2023-11-14T10:28:08.544Z,6.20
2023-11-14T10:30:43.252Z,3.83
2023-11-14T10:33:12.347Z,5.68
2023-11-14T10:35:45.053Z,10.68
2023-11-14T10:38:21.534Z,7.57
2023-11-14T10:40:53.442Z,11.05
2023-11-14T10:43:31.057Z,8.82
2023-11-14T10:46:11.218Z,8.52
2023-11-14T10:48:40.025Z,6.03
2023-11-14T10:51:09.160Z,8.40
2023-11-14T10:53:37.963Z,6.15
2023-11-14T10:56:08.394Z,6.63
2023-11-14T10:58:37.374Z,7.40
2023-11-14T11:01:07.930Z,5.28
2023-11-14T11:03:36.761Z,8.15
2023-11-14T11:06:07.517Z,5.97
2023-11-14T11:08:36.167Z,5.75
2023-11-14T11:11:06.558Z,8.93
2023-11-14T11:13:35.272Z,6.07
2023-11-14T11:16:04.513Z,5.78
2023-11-14T11:18:37.045Z,5.93
2023-11-14T11:24:06.661Z,6.82
2023-11-14T11:26:55.944Z,6.15
2023-11-14T11:30:06.294Z,8.55
2023-11-14T11:32:37.522Z,6.05
2023-11-14T11:35:22.373Z,6.47
2023-11-14T11:37:59.136Z,7.18
2023-11-14T11:40:33.586Z,7.35
2023-11-14T11:43:11.729Z,8.40
2023-11-14T11:45:50.832Z,5.72
2023-11-14T11:48:30.054Z,6.45
2023-11-14T11:51:21.455Z,5.28
2023-11-14T11:53:51.098Z,4.72
2023-11-14T11:56:49.054Z,8.40
2023-11-14T11:59:18.122Z,7.63
2023-11-14T12:01:50.336Z,7.35
2023-11-14T12:04:20.412Z,7.88
2023-11-14T12:06:49.652Z,6.25
2023-11-14T12:09:20.136Z,10.27
2023-11-14T12:11:48.894Z,8.02
2023-11-14T12:14:20.112Z,8.85
2023-11-14T12:16:49.314Z,8.63
2023-11-14T12:19:18.534Z,10.48
2023-11-14T12:21:47.534Z,6.43
2023-11-14T12:24:16.793Z,12.73
2023-11-14T12:26:46.872Z,9.35
2023-11-14T12:29:17.157Z,16.15
2023-11-14T12:31:54.096Z,9.02
2023-11-14T12:34:31.115Z,10.30
2023-11-14T12:37:10.301Z,9.05
2023-11-14T12:39:39.752Z,10.10
2023-11-14T12:42:11.117Z,14.75
2023-11-14T12:44:42.433Z,9.82
2023-11-14T12:47:13.284Z,10.70
2023-11-14T12:49:49.898Z,14.10
2023-11-14T12:52:18.720Z,14.98
2023-11-14T12:54:47.785Z,13.00
2023-11-14T12:57:16.506Z,12.52
2023-11-14T12:59:45.556Z,11.80
2023-11-14T13:02:14.920Z,10.55
2023-11-14T13:04:44.643Z,10.27
2023-11-14T13:07:13.471Z,10.43
2023-11-14T13:09:42.579Z,11.30
2023-11-14T13:12:13.896Z,9.70
2023-11-14T13:14:44.440Z,9.05
2023-11-14T13:17:14.385Z,9.85
2023-11-14T13:19:44.722Z,12.15
2023-11-14T13:22:19.804Z,7.60
2023-11-14T13:24:54.817Z,8.98
2023-11-14T13:27:23.661Z,9.85
2023-11-14T13:29:52.830Z,10.73
2023-11-14T13:32:21.756Z,10.18
2023-11-14T13:34:52.639Z,10.15
2023-11-14T13:37:21.439Z,8.13
2023-11-14T13:39:51.263Z,8.48
2023-11-14T13:42:21.757Z,10.27
2023-11-14T13:44:51.106Z,9.93
2023-11-14T13:47:20.310Z,8.35
2023-11-14T13:49:49.497Z,7.72
2023-11-14T13:52:18.279Z,8.30
2023-11-14T13:54:47.858Z,7.95
2023-11-14T13:57:19.159Z,6.28
2023-11-14T13:59:49.578Z,9.80
2023-11-14T14:02:18.870Z,8.20
2023-11-14T14:04:48.622Z,9.07
2023-11-14T14:07:17.852Z,7.25
2023-11-14T14:09:46.450Z,8.32
2023-11-14T14:12:15.703Z,10.95
2023-11-14T14:14:44.593Z,8.32
2023-11-14T14:17:13.740Z,9.32
2023-11-14T14:19:47.085Z,9.70
2023-11-14T14:22:19.084Z,10.20
2023-11-14T14:24:47.909Z,9.88
2023-11-14T14:27:19.196Z,9.10
2023-11-14T14:29:49.795Z,7.28
2023-11-14T14:32:19.570Z,8.50
2023-11-14T14:34:48.398Z,7.15
2023-11-14T14:37:17.483Z,8.38
2023-11-14T14:39:50.788Z,7.80
2023-11-14T14:42:21.716Z,6.50
2023-11-14T14:44:50.442Z,7.13
2023-11-14T14:47:21.133Z,5.90
2023-11-14T14:49:49.911Z,5.75
2023-11-14T14:52:19.126Z,11.05
2023-11-14T14:54:47.870Z,7.03
2023-11-14T14:57:17.020Z,7.15
2023-11-14T14:59:45.778Z,8.27
2023-11-14T15:02:15.151Z,5.97
2023-11-14T15:04:45.196Z,6.63
2023-11-14T15:07:16.229Z,6.07
2023-11-14T15:09:45.324Z,8.75
2023-11-14T15:12:14.451Z,5.57
2023-11-14T15:14:43.536Z,7.03
2023-11-14T15:17:12.884Z,6.70
2023-11-14T15:19:42.526Z,7.68
2023-11-14T15:22:12.533Z,9.18
2023-11-14T15:24:41.282Z,7.93
2023-11-14T15:27:10.293Z,6.75
2023-11-14T15:29:39.055Z,6.28
2023-11-14T15:32:10.219Z,8.13
2023-11-14T15:34:40.546Z,8.02
2023-11-14T15:37:10.170Z,6.25
2023-11-14T15:39:38.885Z,7.70
2023-11-14T15:42:07.970Z,6.78
2023-11-14T15:44:37.012Z,6.43
2023-11-14T15:47:06.558Z,5.72
2023-11-14T15:49:35.369Z,6.32
2023-11-14T15:52:04.762Z,4.75
2023-11-14T15:54:33.561Z,7.13
2023-11-14T15:57:02.669Z,6.43
2023-11-14T15:59:31.844Z,5.07
2023-11-14T16:02:01.956Z,8.13
2023-11-14T16:04:31.880Z,5.78
2023-11-14T16:07:02.034Z,6.68
2023-11-14T16:09:30.844Z,4.97
2023-11-14T16:11:59.953Z,6.32
2023-11-14T16:14:30.383Z,5.15
2023-11-14T16:16:59.507Z,8.82
2023-11-14T16:19:28.294Z,7.75
2023-11-14T16:21:58.916Z,6.47
2023-11-14T16:24:27.775Z,7.18
2023-11-14T16:26:56.837Z,7.38
2023-11-14T16:29:25.671Z,5.40
2023-11-14T16:31:54.859Z,5.82
2023-11-14T16:34:23.720Z,10.80
2023-11-14T16:36:52.922Z,6.55
2023-11-14T16:39:21.553Z,6.35
2023-11-14T16:41:50.675Z,6.85
2023-11-14T16:44:19.525Z,7.13
2023-11-14T16:46:48.712Z,5.47
2023-11-14T16:49:17.516Z,9.32
2023-11-14T16:51:46.694Z,4.30
2023-11-14T16:54:15.492Z,6.55
2023-11-14T16:56:48.404Z,8.45
2023-11-14T16:59:17.136Z,5.95
2023-11-14T17:01:47.615Z,7.55
2023-11-14T17:04:16.485Z,4.88
2023-11-14T17:06:45.906Z,4.85
2023-11-14T17:09:14.595Z,10.32
2023-11-14T17:11:43.735Z,8.50
2023-11-14T17:14:13.229Z,6.45
2023-11-14T17:16:42.335Z,5.32
2023-11-14T17:19:11.192Z,6.38
2023-11-14T17:21:40.193Z,5.68
2023-11-14T17:24:09.083Z,4.38
2023-11-14T17:26:38.278Z,7.30
2023-11-14T17:29:07.030Z,5.45
2023-11-14T17:31:43.738Z,5.72
2023-11-14T17:34:12.484Z,6.18
2023-11-14T17:36:41.990Z,7.93
2023-11-14T17:39:10.868Z,8.43
2023-11-14T17:41:40.678Z,5.20
2023-11-14T17:44:09.520Z,9.90
2023-11-14T17:46:38.936Z,13.52
2023-11-14T17:49:14.173Z,29.75
2023-11-14T17:51:43.739Z,49.60
2023-11-14T17:54:12.507Z,66.10
2023-11-14T17:56:42.142Z,79.65
2023-11-14T17:59:11.090Z,83.18
2023-11-14T18:01:40.676Z,100.68
2023-11-14T18:04:10.915Z,104.78
2023-11-14T18:06:42.603Z,113.00
2023-11-14T18:09:11.412Z,110.88
2023-11-14T18:11:40.565Z,116.78
2023-11-14T18:14:09.370Z,120.10
2023-11-14T18:16:38.507Z,119.57
2023-11-14T18:19:07.377Z,121.03
2023-11-14T18:21:36.504Z,117.07
2023-11-14T18:24:05.582Z,122.82
2023-11-14T18:26:35.008Z,121.22
2023-11-14T18:29:03.965Z,124.95
2023-11-14T18:31:33.233Z,120.22
2023-11-14T18:34:02.930Z,118.32
2023-11-14T18:36:33.097Z,124.53
2023-11-14T18:39:01.967Z,118.00
2023-11-14T18:41:31.084Z,123.93
2023-11-14T18:44:00.644Z,125.40
2023-11-14T18:46:29.955Z,122.25
2023-11-14T18:48:58.644Z,132.35
2023-11-14T18:51:27.724Z,124.15
2023-11-14T18:53:57.058Z,126.30
2023-11-14T18:56:29.733Z,123.95
2023-11-14T18:58:58.682Z,131.13
2023-11-14T19:01:28.273Z,118.07
2023-11-14T19:03:57.475Z,121.65
2023-11-14T19:06:26.615Z,118.47
2023-11-14T19:08:55.475Z,119.32
2023-11-14T19:11:27.144Z,113.32
2023-11-14T19:14:03.156Z,116.07
2023-11-14T19:16:34.311Z,116.25
2023-11-14T19:19:03.833Z,118.93
2023-11-14T19:21:44.660Z,106.25
2023-11-14T19:24:18.533Z,107.93
2023-11-14T19:26:48.120Z,113.63
2023-11-14T19:29:17.771Z,107.88
2023-11-14T19:31:47.269Z,111.70
2023-11-14T19:34:20.073Z,120.55
2023-11-14T19:36:51.900Z,108.50
2023-11-14T19:39:20.777Z,111.53
2023-11-14T19:41:49.891Z,103.88
2023-11-14T19:44:21.209Z,109.63
2023-11-14T19:46:50.379Z,101.05
2023-11-14T19:49:19.205Z,104.32
2023-11-14T19:51:50.593Z,104.68
2023-11-14T19:54:21.481Z,105.60
2023-11-14T19:56:50.921Z,102.38
2023-11-14T19:59:19.640Z,101.72
2023-11-14T20:01:49.147Z,96.75
2023-11-14T20:04:18.088Z,101.07
2023-11-14T21:07:03.840Z,78.50
2023-11-14T21:09:33.163Z,84.85
2023-11-14T21:12:01.951Z,78.82
2023-11-14T21:14:31.572Z,83.93
2023-11-14T21:17:00.554Z,82.55
2023-11-14T21:19:29.926Z,91.82
2023-11-14T21:21:59.228Z,87.28
2023-11-14T21:24:32.192Z,80.55
2023-11-14T21:27:02.212Z,85.93
2023-11-14T21:29:32.603Z,78.80
2023-11-14T21:32:02.323Z,91.25
2023-11-14T21:34:31.459Z,86.55
2023-11-14T21:37:00.275Z,87.38
2023-11-14T21:39:30.159Z,98.40
2023-11-14T21:42:00.224Z,93.22
2023-11-14T21:44:29.505Z,96.82
2023-11-14T21:46:58.309Z,93.18
2023-11-14T21:49:27.470Z,97.65
2023-11-14T21:51:56.272Z,95.22
2023-11-14T21:54:25.400Z,98.00
2023-11-14T21:56:54.486Z,100.05
2023-11-14T21:59:24.242Z,90.63
2023-11-14T22:01:52.966Z,96.75
2023-11-14T22:04:22.277Z,94.30
2023-11-14T22:06:51.286Z,93.72
2023-11-14T22:09:20.506Z,87.30
2023-11-14T22:11:49.468Z,89.93
2023-11-14T22:14:18.663Z,95.50
2023-11-14T22:16:47.501Z,93.00
2023-11-14T22:19:17.107Z,99.43
2023-11-14T22:21:45.991Z,85.70
2023-11-14T22:24:15.641Z,91.70
2023-11-14T22:26:44.748Z,89.32
2023-11-14T22:29:13.942Z,89.57
2023-11-14T22:31:42.811Z,88.47
2023-11-14T22:34:12.008Z,83.57
2023-11-14T22:36:40.994Z,86.25
2023-11-14T22:39:10.089Z,86.20
2023-11-14T22:41:38.889Z,86.55
2023-11-14T22:44:08.310Z,79.72
2023-11-14T22:46:38.279Z,82.35
2023-11-14T22:49:07.687Z,80.68
2023-11-14T22:51:36.600Z,85.70
2023-11-14T22:54:05.826Z,78.30
2023-11-14T22:56:34.782Z,75.82
2023-11-14T22:59:03.929Z,75.88
2023-11-14T23:01:36.790Z,73.13
2023-11-14T23:04:10.623Z,74.97
2023-11-14T23:06:42.416Z,71.45
2023-11-14T23:09:16.410Z,78.90
2023-11-14T23:11:46.519Z,67.50
2023-11-14T23:14:15.970Z,74.32
2023-11-14T23:16:45.157Z,71.22
2023-11-14T23:19:14.766Z,73.88
2023-11-14T23:21:49.180Z,73.65
2023-11-14T23:24:25.300Z,68.07
2023-11-14T23:26:54.174Z,76.97
2023-11-14T23:29:23.359Z,69.40
2023-11-14T23:31:52.157Z,69.75
2023-11-14T23:34:21.742Z,70.25
2023-11-14T23:36:50.522Z,73.25
2023-11-14T23:39:21.325Z,70.20
2023-11-14T23:41:50.951Z,66.95
2023-11-14T23:44:20.027Z,64.63
2023-11-14T23:46:48.972Z,64.97
2023-11-14T23:49:18.084Z,63.22
2023-11-14T23:51:46.818Z,69.90
2023-11-14T23:54:15.907Z,65.50
2023-11-14T23:56:45.329Z,65.68
2023-11-14T23:59:14.531Z,67.05
